Time;durP1;ratioP1;P1;durP2;ratioP2;P2;SDS_P1;SDS_P2;PMS_P1;PMS_P2;Temp;Humidity;BMP_temperature;BMP_pressure;BME280_temperature;BME280_humidity;BME280_pressure;Samples;Min_cycle;Max_cycle;Signal;HPM_P1;HPM_P2
2023/01/23 00:01:03;;;;;;;12.88;4.38;;;;;;;7.21;87.55;102135.72;4972921;28;20026;-81
2023/01/23 00:03:28;;;;;;;7.82;4.88;;;;;;;7.12;87.10;102132.34;4972866;28;20549;-81
2023/01/23 00:05:58;;;;;;;5.20;4.03;;;;;;;7.23;87.50;102149.41;4956983;28;20130;-81
2023/01/23 00:08:23;;;;;;;5.30;4.20;;;;;;;7.10;87.70;102139.25;4973429;28;20073;-81
2023/01/23 00:10:49;;;;;;;7.13;5.72;;;;;;;7.16;87.86;102151.19;4973028;28;20458;-81
2023/01/23 00:13:33;;;;;;;8.95;4.15;;;;;;;7.26;87.60;102157.09;4972876;28;20038;-81
2023/01/23 00:16:03;;;;;;;12.05;4.80;;;;;;;6.99;87.32;102122.22;4973557;28;20023;-81
2023/01/23 00:18:29;;;;;;;4.80;3.00;;;;;;;7.14;88.29;102148.63;4989053;28;20035;-81
2023/01/23 00:20:54;;;;;;;7.82;4.60;;;;;;;7.23;86.87;102151.97;4972598;28;20118;-81
2023/01/23 00:23:20;;;;;;;10.93;5.10;;;;;;;7.12;87.71;102147.81;4972840;28;20093;-81
2023/01/23 00:25:45;;;;;;;7.70;4.45;;;;;;;7.09;87.83;102157.28;4972520;28;20042;-81
2023/01/23 00:28:11;;;;;;;8.02;4.90;;;;;;;7.11;88.62;102148.69;4956666;28;20518;-81
2023/01/23 00:30:36;;;;;;;8.95;5.18;;;;;;;7.11;88.48;102151.25;4972167;28;20030;-81
2023/01/23 00:33:02;;;;;;;9.45;5.63;;;;;;;7.17;87.83;102150.31;4956376;28;20038;-81
2023/01/23 00:35:27;;;;;;;10.63;5.07;;;;;;;7.08;88.11;102146.13;4972586;28;20030;-81
2023/01/23 00:37:52;;;;;;;8.80;5.20;;;;;;;7.14;87.27;102145.22;4988941;28;20062;-81
2023/01/23 00:40:18;;;;;;;8.05;4.35;;;;;;;6.97;87.74;102121.34;4956458;28;20031;-80
2023/01/23 00:42:44;;;;;;;6.82;4.68;;;;;;;7.10;88.06;102143.53;4988705;28;20524;-81
2023/01/23 00:45:09;;;;;;;8.52;5.40;;;;;;;7.22;87.21;102153.72;4971851;28;20038;-81
2023/01/23 00:47:35;;;;;;;5.90;3.78;;;;;;;7.30;87.60;102161.34;4956043;28;20062;-81
2023/01/23 00:50:00;;;;;;;10.38;6.45;;;;;;;7.05;87.14;102130.72;4972001;28;20071;-81
2023/01/23 00:52:26;;;;;;;6.93;4.65;;;;;;;7.26;87.10;102169.97;4988389;28;20027;-81
2023/01/23 00:54:52;;;;;;;9.48;4.53;;;;;;;7.11;87.04;102148.69;4956112;28;20030;-81
2023/01/23 00:57:17;;;;;;;6.22;4.80;;;;;;;7.17;88.07;102163.19;4955751;28;20058;-81
2023/01/23 00:59:43;;;;;;;6.07;4.40;;;;;;;7.10;88.24;102144.41;4955583;28;20034;-81
2023/01/23 01:02:08;;;;;;;5.68;2.95;;;;;;;7.24;87.43;102163.97;4971653;28;20031;-81
2023/01/23 01:04:34;;;;;;;6.78;4.65;;;;;;;7.22;87.46;102164.00;4971838;28;20054;-81
2023/01/23 01:07:00;;;;;;;9.65;3.70;;;;;;;7.25;87.34;102158.81;4955735;28;20043;-81
2023/01/23 01:09:25;;;;;;;6.90;4.35;;;;;;;7.24;87.55;102167.41;4971894;28;20034;-81
2023/01/23 01:11:51;;;;;;;7.88;4.88;;;;;;;7.15;87.90;102158.06;4955594;28;20402;-81
2023/01/23 01:14:16;;;;;;;8.77;3.75;;;;;;;7.11;87.76;102140.94;4972410;28;20031;-82
2023/01/23 01:16:44;;;;;;;7.13;4.43;;;;;;;7.17;87.54;102145.16;4971662;28;20623;-81
2023/01/23 01:19:10;;;;;;;3.67;3.08;;;;;;;7.21;87.18;102162.31;4971822;28;20053;-81
2023/01/23 01:21:37;;;;;;;6.18;3.42;;;;;;;7.09;87.86;102150.41;4955582;28;20035;-81
2023/01/23 01:24:03;;;;;;;5.47;4.40;;;;;;;7.07;88.21;102156.41;4972028;28;20047;-81
2023/01/23 01:26:29;;;;;;;11.05;3.95;;;;;;;7.11;87.70;102170.97;4955531;28;20391;-81
2023/01/23 01:28:54;;;;;;;7.57;4.63;;;;;;;7.14;87.93;102171.78;4970961;28;20082;-81
2023/01/23 01:31:20;;;;;;;14.63;5.15;;;;;;;7.15;88.25;102158.06;4971475;28;20035;-81
2023/01/23 01:33:45;;;;;;;5.65;3.30;;;;;;;7.19;88.15;102166.63;4971473;28;20030;-81
2023/01/23 01:36:12;;;;;;;7.65;3.80;;;;;;;7.16;88.05;102158.91;4971226;28;20035;-81
2023/01/23 01:38:38;;;;;;;4.57;3.35;;;;;;;7.20;88.12;102163.16;4955320;28;20038;-81
2023/01/23 01:41:04;;;;;;;9.45;4.72;;;;;;;7.06;88.30;102137.56;4971419;28;20027;-81
2023/01/23 01:43:30;;;;;;;9.02;2.75;;;;;;;7.21;87.97;102154.56;4971139;28;20034;-81
2023/01/23 01:46:05;;;;;;;11.35;3.38;;;;;;;7.12;88.22;102147.81;4971265;28;20106;-81
2023/01/23 01:48:49;;;;;;;3.88;3.22;;;;;;;7.28;87.74;102165.66;4971085;28;20066;-81
2023/01/23 01:51:30;;;;;;;4.65;3.50;;;;;;;7.23;87.45;102149.41;4972236;28;20027;-81
2023/01/23 01:54:04;;;;;;;5.57;4.07;;;;;;;7.24;88.03;102167.41;4971075;28;20445;-81
2023/01/23 01:56:31;;;;;;;5.63;4.75;;;;;;;7.23;87.88;102170.00;4955358;28;20454;-81
2023/01/23 01:58:57;;;;;;;5.93;4.18;;;;;;;7.23;88.81;102185.44;4970603;28;20035;-81
2023/01/23 02:01:23;;;;;;;8.60;2.80;;;;;;;7.22;88.39;102179.44;4971199;28;20082;-81
2023/01/23 02:03:48;;;;;;;7.63;3.67;;;;;;;7.20;87.98;102178.63;4970828;28;20055;-81
2023/01/23 02:06:14;;;;;;;10.48;4.05;;;;;;;7.11;87.77;102158.13;4971067;28;20383;-81
2023/01/23 02:09:00;;;;;;;3.33;2.97;;;;;;;7.27;87.95;102192.25;4971025;28;20041;-81
2023/01/23 02:11:25;;;;;;;6.03;3.90;;;;;;;6.99;88.31;102160.81;4970751;28;20031;-81
2023/01/23 02:13:54;;;;;;;6.15;4.18;;;;;;;7.13;88.95;102177.81;4954144;28;20395;-81
2023/01/23 02:16:20;;;;;;;6.35;3.92;;;;;;;7.28;88.68;102188.84;4970922;28;20038;-81
2023/01/23 02:18:48;;;;;;;5.75;3.97;;;;;;;7.27;89.11;102171.66;4954763;28;20031;-81
2023/01/23 02:21:15;;;;;;;5.47;4.00;;;;;;;7.38;91.55;102180.16;4971015;28;20042;-81
2023/01/23 02:23:47;;;;;;;6.72;4.80;;;;;;;7.49;92.91;102186.03;4954897;28;20454;-81
2023/01/23 02:26:19;;;;;;;5.95;5.15;;;;;;;7.56;93.01;102184.22;4971278;28;20037;-81
2023/01/23 02:28:50;;;;;;;15.23;4.85;;;;;;;7.50;93.26;102166.28;4954615;28;20087;-81
2023/01/23 02:31:16;;;;;;;5.65;2.55;;;;;;;7.57;93.00;102161.03;4970819;28;20502;-81
2023/01/23 02:33:49;;;;;;;7.35;5.60;;;;;;;7.59;92.79;102166.16;4970540;28;20055;-81
2023/01/23 02:36:15;;;;;;;6.60;4.43;;;;;;;7.53;92.69;102158.50;4971082;28;20502;-80
2023/01/23 02:39:03;;;;;;;8.15;5.60;;;;;;;7.66;92.75;102180.66;4954568;28;20117;-81
2023/01/23 02:41:31;;;;;;;5.45;4.30;;;;;;;7.68;92.35;102190.09;4971943;28;20034;-81
2023/01/23 02:43:58;;;;;;;7.30;4.93;;;;;;;7.73;92.28;102184.88;4970533;28;20031;-81
2023/01/23 02:46:24;;;;;;;7.88;4.07;;;;;;;7.72;92.44;102190.91;4970781;28;20034;-81
2023/01/23 02:48:50;;;;;;;6.68;4.57;;;;;;;7.70;92.68;102185.78;4954377;28;20023;-81
2023/01/23 02:51:16;;;;;;;8.80;4.07;;;;;;;7.59;92.63;102177.31;4970472;28;20030;-81
2023/01/23 02:53:42;;;;;;;6.28;4.28;;;;;;;7.66;92.67;102181.50;4954512;28;20448;-81
2023/01/23 02:56:08;;;;;;;12.63;4.95;;;;;;;7.76;92.34;102195.13;4970317;28;20027;-81
2023/01/23 03:01:17;;;;;;;14.98;5.10;;;;;;;7.65;92.21;102182.38;4970410;28;20109;-81
2023/01/23 03:03:43;;;;;;;5.90;5.05;;;;;;;7.67;92.12;102201.28;4953964;28;20486;-81
2023/01/23 03:06:10;;;;;;;5.10;4.30;;;;;;;7.73;91.82;102195.19;4970481;28;20035;-81
2023/01/23 03:08:47;;;;;;;9.93;6.72;;;;;;;7.64;91.10;102183.25;4970448;28;20054;-81
2023/01/23 03:11:12;;;;;;;17.38;8.77;;;;;;;7.68;91.05;102200.41;4969866;28;20501;-81
2023/01/23 03:13:38;;;;;;;9.90;7.15;;;;;;;7.61;91.25;102193.59;4970472;28;20031;-81
2023/01/23 03:16:04;;;;;;;10.32;6.93;;;;;;;7.68;91.39;102205.56;4970107;28;20039;-81
2023/01/23 03:18:30;;;;;;;15.05;7.55;;;;;;;7.58;91.01;102187.66;4986368;28;20031;-81
2023/01/23 03:20:59;;;;;;;10.68;7.03;;;;;;;7.55;91.39;102198.81;4970232;28;20026;-81
2023/01/23 03:23:25;;;;;;;5.88;3.72;;;;;;;7.56;91.54;102213.41;4954503;28;20034;-81
2023/01/23 03:25:57;;;;;;;6.13;4.60;;;;;;;7.34;91.43;102181.03;4956110;28;20034;-81
2023/01/23 03:31:11;;;;;;;6.38;4.13;;;;;;;7.56;91.61;102209.97;4974520;28;20131;-81
2023/01/23 03:33:38;;;;;;;13.38;3.78;;;;;;;7.54;91.48;102217.72;4974033;28;20057;-81
2023/01/23 03:36:05;;;;;;;6.57;4.65;;;;;;;7.52;91.71;102216.88;4973554;28;20030;-82
2023/01/23 03:38:30;;;;;;;6.97;4.70;;;;;;;7.49;91.57;102206.63;4957555;28;20022;-81
2023/01/23 03:43:39;;;;;;;9.10;5.07;;;;;;;7.46;91.03;102201.50;4973555;28;20037;-81
2023/01/23 03:46:05;;;;;;;8.48;4.90;;;;;;;7.49;91.06;102214.34;4957445;28;20403;-81
2023/01/23 03:48:30;;;;;;;8.30;4.30;;;;;;;7.24;91.38;102174.28;4957191;28;20514;-81
2023/01/23 03:50:56;;;;;;;8.32;3.55;;;;;;;7.22;91.67;102174.28;4957282;28;20018;-81
2023/01/23 03:53:22;;;;;;;6.93;3.47;;;;;;;7.50;91.54;102210.06;4989089;28;20516;-81
2023/01/23 03:55:47;;;;;;;5.40;3.58;;;;;;;7.39;91.48;102207.59;4973396;28;20031;-81
2023/01/23 03:58:13;;;;;;;4.70;3.58;;;;;;;7.40;91.54;102212.72;4957072;28;20027;-81
2023/01/23 04:00:38;;;;;;;10.70;4.35;;;;;;;7.38;91.57;102190.44;4972913;28;20035;-81
2023/01/23 04:03:04;;;;;;;6.70;4.43;;;;;;;7.40;91.26;102193.84;4973218;28;20077;-81
2023/01/23 04:05:29;;;;;;;13.50;4.50;;;;;;;7.46;90.74;102214.38;4972990;28;20085;-81
2023/01/23 04:07:55;;;;;;;7.75;4.40;;;;;;;7.25;90.62;102183.69;4972729;28;20031;-81
2023/01/23 04:10:20;;;;;;;14.40;4.97;;;;;;;7.47;90.61;102222.09;4973014;28;20082;-81
2023/01/23 04:12:46;;;;;;;19.77;7.20;;;;;;;7.40;90.62;102222.19;4956710;28;20557;-81
2023/01/23 04:15:11;;;;;;;7.90;3.60;;;;;;;7.37;90.42;102219.59;4956906;28;20034;-81
2023/01/23 04:17:37;;;;;;;16.98;10.73;;;;;;;7.38;89.73;102221.34;4956645;28;20469;-81
2023/01/23 04:20:03;;;;;;;5.70;4.63;;;;;;;7.36;90.07;102220.47;4956609;28;20030;-81
2023/01/23 04:22:28;;;;;;;15.25;6.22;;;;;;;7.33;90.07;102213.66;4956495;28;20027;-81
2023/01/23 04:24:54;;;;;;;14.15;6.07;;;;;;;7.33;89.35;102212.78;4973093;28;20027;-81
2023/01/23 04:27:19;;;;;;;8.50;4.35;;;;;;;7.30;89.29;102218.00;4956603;28;20122;-81
2023/01/23 04:29:46;;;;;;;6.97;4.68;;;;;;;7.39;89.08;102220.47;4972451;28;20426;-81
2023/01/23 04:32:12;;;;;;;5.82;4.60;;;;;;;7.31;89.06;102225.69;4949459;28;20028;-81
2023/01/23 04:34:37;;;;;;;4.35;3.60;;;;;;;7.24;89.04;102212.88;4937117;28;20059;-83
2023/01/23 04:37:03;;;;;;;3.75;3.17;;;;;;;7.21;89.17;102224.06;4936490;29;20035;-82
2023/01/23 04:39:30;;;;;;;5.03;3.50;;;;;;;7.23;88.63;102227.47;4921246;29;20031;-87
2023/01/23 04:41:55;;;;;;;7.68;3.72;;;;;;;7.14;89.32;102240.44;4937348;29;20070;-82
2023/01/23 04:44:21;;;;;;;4.47;3.60;;;;;;;7.11;89.55;102232.75;4920998;29;20027;-82
2023/01/23 04:46:51;;;;;;;4.97;3.60;;;;;;;7.08;89.42;102237.91;4937072;29;20410;-83
2023/01/23 04:49:18;;;;;;;10.25;6.00;;;;;;;7.12;89.32;102235.31;4937539;29;20034;-82
2023/01/23 04:51:44;;;;;;;7.05;4.72;;;;;;;7.03;89.29;102234.53;4936640;29;20038;-84
2023/01/23 04:54:10;;;;;;;9.75;5.32;;;;;;;6.93;89.04;102213.16;4952847;28;20494;-85
2023/01/23 04:56:36;;;;;;;9.35;5.05;;;;;;;6.96;89.09;102228.56;4936604;29;20027;-85
2023/01/23 04:59:01;;;;;;;10.38;7.57;;;;;;;6.83;89.17;102219.25;4952447;29;20031;-85
2023/01/23 05:01:27;;;;;;;10.35;3.22;;;;;;;6.91;88.88;102245.78;4936284;28;20034;-85
2023/01/23 05:03:52;;;;;;;3.78;2.97;;;;;;;6.90;89.14;102231.22;4920335;29;20051;-84
2023/01/23 05:06:18;;;;;;;11.95;4.60;;;;;;;6.93;88.97;102264.63;4952355;29;20025;-85
2023/01/23 05:08:44;;;;;;;5.10;2.67;;;;;;;6.92;88.78;102262.94;4954171;28;20038;-85
2023/01/23 05:11:09;;;;;;;16.40;4.97;;;;;;;6.87;88.97;102274.97;4955178;28;20034;-86
2023/01/23 05:13:35;;;;;;;14.73;6.72;;;;;;;6.83;89.02;102274.13;4957007;28;20027;-86
2023/01/23 05:16:00;;;;;;;13.90;4.18;;;;;;;6.74;88.81;102263.06;4955860;28;20537;-83
2023/01/23 05:18:25;;;;;;;10.40;5.43;;;;;;;6.78;88.33;102264.72;4979891;28;20035;-89
2023/01/23 05:20:51;;;;;;;13.52;6.00;;;;;;;6.86;88.19;102276.66;4938948;28;20027;-82
2023/01/23 05:23:16;;;;;;;5.80;4.38;;;;;;;6.86;88.37;102291.25;4955289;28;20046;-80
2023/01/23 05:25:42;;;;;;;3.70;2.55;;;;;;;6.72;87.97;102260.50;4971121;28;20093;-82
2023/01/23 05:28:07;;;;;;;5.55;4.30;;;;;;;6.73;88.31;102289.66;4954784;28;20074;-89
2023/01/23 05:30:33;;;;;;;9.57;3.35;;;;;;;6.78;87.90;102295.59;4971469;28;20042;-84
2023/01/23 05:32:58;;;;;;;4.55;3.55;;;;;;;6.68;88.48;102306.81;4976838;28;20031;-90
2023/01/23 05:35:24;;;;;;;6.18;3.13;;;;;;;6.51;88.53;102294.06;4955368;28;20056;-80
2023/01/23 05:37:50;;;;;;;3.97;1.45;;;;;;;6.59;88.33;102311.16;4939053;28;20027;-81
2023/01/23 05:40:16;;;;;;;4.38;3.03;;;;;;;6.52;88.18;102295.78;4954748;28;20101;-81
2023/01/23 05:42:41;;;;;;;6.35;5.00;;;;;;;6.52;88.37;102304.34;4955096;28;20070;-89
2023/01/23 05:45:07;;;;;;;11.95;5.18;;;;;;;6.46;88.73;102306.94;4955283;28;20417;-91
2023/01/23 05:47:32;;;;;;;15.40;7.05;;;;;;;6.42;89.51;102304.41;4955662;28;20037;-95
2023/01/23 05:49:58;;;;;;;20.75;13.73;;;;;;;6.46;89.25;102301.78;4973578;28;20031;-91
2023/01/23 05:52:23;;;;;;;9.52;5.07;;;;;;;6.41;88.46;102284.69;4972522;28;20066;-89
2023/01/23 05:54:49;;;;;;;3.60;2.22;;;;;;;6.50;88.38;102312.94;4986551;28;20019;-91
2023/01/23 05:57:15;;;;;;;8.45;4.22;;;;;;;6.48;88.88;102328.34;4954645;28;20027;-93
2023/01/23 05:59:40;;;;;;;3.42;2.90;;;;;;;6.39;88.25;102313.00;4937327;28;20042;-89
2023/01/23 06:02:06;;;;;;;2.30;2.08;;;;;;;6.43;88.58;102329.25;4936204;28;20030;-90
2023/01/23 06:04:31;;;;;;;5.32;3.58;;;;;;;6.39;88.54;102337.81;4952592;28;20131;-93
2023/01/23 06:06:57;;;;;;;6.30;4.28;;;;;;;6.42;88.17;102350.66;4940521;28;20030;-92
2023/01/23 06:09:22;;;;;;;2.38;2.17;;;;;;;6.41;88.63;102347.25;4971824;28;20068;-96
2023/01/23 06:11:48;;;;;;;4.60;3.53;;;;;;;6.36;88.74;102338.69;4966362;28;20030;-84
2023/01/23 06:14:13;;;;;;;7.07;4.05;;;;;;;6.47;88.09;102352.34;4953407;28;20167;-84
2023/01/23 06:16:39;;;;;;;6.97;5.03;;;;;;;6.48;88.01;102358.34;4953697;28;20513;-82
2023/01/23 06:19:04;;;;;;;1.77;1.65;;;;;;;6.44;88.06;102352.38;4953780;28;20034;-95
2023/01/23 06:21:30;;;;;;;7.35;4.50;;;;;;;6.46;88.16;102342.06;4973800;28;20517;-91
2023/01/23 06:23:58;;;;;;;4.85;3.30;;;;;;;6.32;87.88;102331.84;4936600;29;20134;-89
2023/01/23 06:26:23;;;;;;;8.90;3.55;;;;;;;6.34;87.86;102350.69;4953050;28;20031;-86
2023/01/23 06:28:49;;;;;;;4.80;3.40;;;;;;;6.37;88.13;102360.09;4959565;28;20030;-93
2023/01/23 06:31:14;;;;;;;3.55;2.63;;;;;;;6.37;88.14;102366.09;4944626;28;20026;-96
2023/01/23 06:33:40;;;;;;;3.45;3.08;;;;;;;6.42;88.27;102369.53;4937818;28;20041;-95
2023/01/23 06:36:06;;;;;;;10.68;6.13;;;;;;;6.40;87.92;102381.53;4955364;28;20059;-86
2023/01/23 06:38:31;;;;;;;6.30;2.67;;;;;;;6.33;87.79;102379.84;4964394;28;20485;-84
2023/01/23 06:40:57;;;;;;;3.58;2.63;;;;;;;6.32;88.29;102373.84;4953361;28;20110;-91
2023/01/23 06:43:23;;;;;;;6.10;2.63;;;;;;;6.33;87.99;102372.97;4923947;28;20455;-89
2023/01/23 06:45:48;;;;;;;4.63;3.58;;;;;;;6.35;87.67;102393.53;4959549;28;20031;-90
2023/01/23 06:48:14;;;;;;;3.40;2.45;;;;;;;6.29;88.27;102389.28;4954298;28;20030;-88
2023/01/23 06:50:40;;;;;;;2.72;2.47;;;;;;;6.18;88.20;102362.72;4950118;28;20031;-90
2023/01/23 06:53:06;;;;;;;3.53;2.53;;;;;;;6.22;88.36;102382.44;4955839;28;20121;-85
2023/01/23 06:55:31;;;;;;;5.10;3.47;;;;;;;6.23;88.02;102391.84;4970585;28;20414;-80
2023/01/23 06:57:57;;;;;;;4.68;3.97;;;;;;;6.24;88.49;102397.84;4973173;28;20035;-83
2023/01/23 07:00:22;;;;;;;5.30;4.20;;;;;;;6.26;88.42;102401.28;4975848;28;20026;-85
2023/01/23 07:02:48;;;;;;;9.25;4.72;;;;;;;6.31;88.27;102414.97;4955942;28;20066;-82
2023/01/23 07:05:14;;;;;;;3.15;2.95;;;;;;;6.38;88.43;102420.94;4966655;28;20059;-92
2023/01/23 07:07:39;;;;;;;21.08;15.15;;;;;;;6.26;88.45;102414.13;4969318;28;20034;-91
2023/01/23 07:10:05;;;;;;;9.70;5.32;;;;;;;6.37;87.94;102421.78;4974287;28;20065;-93
2023/01/23 07:12:31;;;;;;;5.85;3.50;;;;;;;6.26;88.12;102403.84;4961421;28;20031;-88
2023/01/23 07:14:56;;;;;;;2.85;2.55;;;;;;;6.37;87.74;102417.50;4995678;28;20386;-91
2023/01/23 07:17:22;;;;;;;3.33;3.03;;;;;;;6.36;87.32;102405.53;4940234;28;20022;-80
2023/01/23 07:19:47;;;;;;;6.30;3.92;;;;;;;6.39;87.53;102422.66;4972881;28;20027;-83
2023/01/23 07:22:17;;;;;;;14.82;9.70;;;;;;;6.41;87.73;102429.50;4956405;28;20030;-86
2023/01/23 07:24:42;;;;;;;9.20;7.10;;;;;;;6.35;87.25;102410.66;4957318;28;20027;-88
2023/01/23 07:27:07;;;;;;;3.95;3.58;;;;;;;6.44;87.37;102423.50;4959042;28;20049;-89
2023/01/23 07:29:33;;;;;;;3.42;2.80;;;;;;;6.38;86.60;102424.34;4973255;28;20039;-88
2023/01/23 07:31:59;;;;;;;2.97;2.78;;;;;;;6.27;86.68;102418.41;4974092;28;20429;-85
2023/01/23 07:34:25;;;;;;;6.00;3.70;;;;;;;6.38;86.98;102437.22;4973325;28;20035;-86
2023/01/23 07:36:51;;;;;;;4.55;2.42;;;;;;;6.47;86.55;102455.19;4973266;28;20150;-93
2023/01/23 07:39:16;;;;;;;4.57;1.70;;;;;;;6.50;86.34;102447.50;4957272;28;20035;-88
2023/01/23 07:41:42;;;;;;;5.88;4.72;;;;;;;6.35;86.57;102434.66;4956496;28;20031;-78
2023/01/23 07:44:07;;;;;;;2.40;1.48;;;;;;;6.40;86.27;102432.09;4971988;28;20031;-84
2023/01/23 07:46:33;;;;;;;6.47;2.40;;;;;;;6.41;85.74;102442.38;4970349;28;20486;-81
2023/01/23 07:48:58;;;;;;;12.95;3.88;;;;;;;6.39;86.49;102440.63;4972324;28;20044;-90
2023/01/23 07:51:24;;;;;;;4.72;2.85;;;;;;;6.37;86.16;102445.78;4955665;28;20041;-78
2023/01/23 07:53:49;;;;;;;6.38;4.15;;;;;;;6.17;86.35;102425.28;4970597;28;20031;-82
2023/01/23 07:56:15;;;;;;;6.40;2.95;;;;;;;6.29;86.35;102460.38;4955837;28;20035;-91
2023/01/23 07:58:40;;;;;;;5.10;2.90;;;;;;;6.31;86.76;102458.69;4961373;28;20133;-89
2023/01/23 08:01:09;;;;;;;28.23;3.80;;;;;;;6.34;86.75;102463.81;4938763;28;20031;-88
2023/01/23 08:03:35;;;;;;;2.75;2.55;;;;;;;6.13;86.92;102438.16;4941140;28;20057;-88
2023/01/23 08:06:00;;;;;;;10.07;4.88;;;;;;;6.25;86.97;102459.53;4954665;28;20035;-89
2023/01/23 08:08:26;;;;;;;5.35;2.72;;;;;;;6.25;86.43;102459.53;4947968;29;20028;-83
2023/01/23 08:10:51;;;;;;;4.78;2.38;;;;;;;6.20;86.69;102447.56;4934364;29;20039;-83
2023/01/23 08:13:17;;;;;;;4.07;2.55;;;;;;;6.29;86.53;102475.78;4968696;28;20409;-89
2023/01/23 08:15:42;;;;;;;8.05;3.25;;;;;;;6.25;86.79;102467.25;4973931;28;20086;-90
2023/01/23 08:18:08;;;;;;;3.85;2.85;;;;;;;6.42;87.42;102477.50;4966307;28;20043;-84
2023/01/23 08:20:33;;;;;;;4.18;2.47;;;;;;;6.61;86.19;102479.16;4965435;28;20508;-94
2023/01/23 08:23:00;;;;;;;9.23;5.40;;;;;;;6.47;85.20;102444.91;4954518;28;20039;-88
2023/01/23 08:25:26;;;;;;;4.63;3.33;;;;;;;6.71;84.87;102484.28;4969120;28;20047;-81
2023/01/23 08:27:51;;;;;;;7.40;2.70;;;;;;;6.66;84.69;102473.13;4953783;28;20035;-82
2023/01/23 08:30:17;;;;;;;4.22;3.28;;;;;;;6.55;84.73;102480.88;4953488;28;20034;-88
2023/01/23 08:32:42;;;;;;;4.15;2.50;;;;;;;6.33;85.60;102488.66;4938760;28;20422;-84
2023/01/23 08:35:08;;;;;;;8.35;2.97;;;;;;;6.36;85.71;102498.06;4971118;28;20113;-89
2023/01/23 08:37:35;;;;;;;7.40;3.95;;;;;;;6.39;85.59;102495.50;4963094;28;20106;-96
2023/01/23 08:40:01;;;;;;;6.90;3.33;;;;;;;6.32;85.87;102493.81;4940566;28;20394;-85
2023/01/23 08:42:26;;;;;;;4.90;3.55;;;;;;;6.28;85.89;102484.38;4955198;28;20085;-80
2023/01/23 08:44:52;;;;;;;2.38;1.88;;;;;;;6.25;86.00;102489.53;4955322;28;20489;-93
2023/01/23 08:47:17;;;;;;;4.82;2.97;;;;;;;6.15;86.00;102478.38;4964955;28;20402;-82
2023/01/23 08:49:43;;;;;;;13.48;3.35;;;;;;;6.24;86.13;102490.38;4970643;28;20055;-93
2023/01/23 08:52:09;;;;;;;4.38;2.38;;;;;;;6.10;86.09;102458.72;4973899;28;20091;-87
2023/01/23 08:54:37;;;;;;;2.55;2.30;;;;;;;6.23;86.37;102486.97;4973066;28;20042;-91
2023/01/23 08:57:02;;;;;;;4.38;3.38;;;;;;;6.29;85.99;102492.09;4958254;28;20039;-93
2023/01/23 08:59:28;;;;;;;2.35;2.15;;;;;;;6.19;85.89;102474.94;4939899;28;20169;-92
2023/01/23 09:01:53;;;;;;;12.45;2.72;;;;;;;6.25;86.46;102495.50;4955068;28;20085;-92
2023/01/23 09:04:19;;;;;;;4.25;3.22;;;;;;;6.32;86.27;102501.50;4951617;29;20055;-83
2023/01/23 09:06:44;;;;;;;3.67;3.00;;;;;;;6.18;85.92;102500.66;4970521;28;20498;-90
2023/01/23 09:09:10;;;;;;;4.60;2.67;;;;;;;6.26;86.27;102506.66;4955560;28;21350;-91
2023/01/23 09:11:35;;;;;;;6.05;4.60;;;;;;;6.28;85.64;102516.06;4955990;28;20086;-91
2023/01/23 09:14:01;;;;;;;7.78;4.07;;;;;;;6.23;85.82;102517.78;4954383;28;20063;-87
2023/01/23 09:16:26;;;;;;;4.10;2.88;;;;;;;6.14;86.41;102509.25;4970109;28;20104;-80
2023/01/23 09:18:53;;;;;;;4.13;3.03;;;;;;;6.25;86.43;102517.78;4966583;28;20114;-86
2023/01/23 09:21:19;;;;;;;3.90;3.20;;;;;;;6.21;86.74;102514.38;4949906;28;20529;-85
2023/01/23 09:23:44;;;;;;;2.30;1.58;;;;;;;6.08;86.38;102491.25;4968867;28;20027;-82
2023/01/23 09:26:11;;;;;;;8.77;7.93;;;;;;;6.29;86.34;102516.91;4954955;28;20117;-79
2023/01/23 09:28:41;;;;;;;16.40;6.47;;;;;;;6.06;86.15;102487.81;4970329;28;20098;-79
2023/01/23 09:31:07;;;;;;;13.38;5.25;;;;;;;6.18;85.93;102500.66;4954806;28;20031;-86
2023/01/23 09:33:33;;;;;;;7.45;4.22;;;;;;;6.18;86.08;102508.38;4954744;28;20058;-89
2023/01/23 09:35:59;;;;;;;5.18;3.50;;;;;;;6.23;86.22;102509.22;4970458;28;20035;-79
2023/01/23 09:38:25;;;;;;;4.50;3.47;;;;;;;6.08;86.46;102502.38;4971417;28;20101;-83
2023/01/23 09:40:53;;;;;;;3.75;2.40;;;;;;;6.21;86.03;102514.38;4970785;28;20498;-79
2023/01/23 09:43:30;;;;;;;7.03;3.08;;;;;;;6.16;85.57;102521.22;4953874;28;20038;-84
2023/01/23 09:46:25;;;;;;;9.20;4.25;;;;;;;6.10;86.09;102518.66;4971970;28;20034;-83
2023/01/23 09:49:03;;;;;;;7.70;2.63;;;;;;;6.03;86.58;102506.66;4969901;28;20128;-84
2023/01/23 09:51:37;;;;;;;5.13;3.78;;;;;;;5.99;86.70;102516.06;4971163;28;20042;-83
2023/01/23 09:54:35;;;;;;;14.35;3.25;;;;;;;5.81;87.15;102498.06;4970624;28;20089;-85
2023/01/23 09:57:07;;;;;;;7.35;3.22;;;;;;;5.58;87.21;102467.22;4948827;28;20058;-89
2023/01/23 09:59:37;;;;;;;5.18;4.72;;;;;;;5.81;87.30;102505.78;4961314;28;20034;-91
2023/01/23 10:02:12;;;;;;;7.80;5.22;;;;;;;5.83;87.09;102498.94;4971971;28;20034;-85
2023/01/23 10:04:37;;;;;;;4.57;2.65;;;;;;;5.90;87.66;102505.81;4968830;28;20053;-86
2023/01/23 10:07:24;;;;;;;3.38;3.08;;;;;;;5.92;87.49;102510.97;4970678;28;20035;-85
2023/01/23 10:09:50;;;;;;;5.68;3.15;;;;;;;5.90;87.49;102503.25;4968860;28;20082;-87
2023/01/23 10:12:35;;;;;;;7.75;4.63;;;;;;;5.85;87.42;102504.91;4970591;28;20031;-79
2023/01/23 10:15:34;;;;;;;3.95;3.25;;;;;;;5.81;87.82;102503.22;4949923;28;20039;-90
2023/01/23 10:18:12;;;;;;;3.35;2.85;;;;;;;5.85;87.63;102499.78;4969720;28;20505;-85
2023/01/23 10:20:42;;;;;;;4.13;3.17;;;;;;;5.85;88.06;102494.66;4966243;28;20042;-88
2023/01/23 10:23:22;;;;;;;4.55;2.42;;;;;;;5.58;87.74;102458.66;4964365;28;20023;-86
2023/01/23 10:25:48;;;;;;;6.22;3.38;;;;;;;5.79;88.20;102498.91;4958060;28;20517;-92
2023/01/23 10:28:37;;;;;;;5.97;3.90;;;;;;;5.72;87.78;102490.38;4939795;28;20090;-93
2023/01/23 10:31:37;;;;;;;4.28;3.85;;;;;;;5.80;87.76;102498.94;4980768;28;20170;-84
2023/01/23 10:34:08;;;;;;;6.07;2.00;;;;;;;5.75;87.70;102503.19;4972353;28;20033;-86
2023/01/23 10:36:38;;;;;;;4.88;3.42;;;;;;;5.59;87.92;102480.91;4972878;28;20034;-88
2023/01/23 10:39:07;;;;;;;2.97;2.65;;;;;;;5.64;88.20;102477.50;4957285;28;20043;-88
2023/01/23 10:41:33;;;;;;;8.35;3.67;;;;;;;5.69;87.91;102492.91;4967384;28;20560;-84
2023/01/23 10:43:58;;;;;;;5.28;3.88;;;;;;;5.56;88.30;102475.78;4975571;28;20034;-81
2023/01/23 10:46:27;;;;;;;3.42;2.58;;;;;;;5.70;88.91;102499.75;4955992;28;20039;-79
2023/01/23 10:48:53;;;;;;;5.78;3.47;;;;;;;5.78;88.77;102505.75;4971140;28;20062;-80
2023/01/23 10:51:27;;;;;;;11.90;4.75;;;;;;;5.72;88.16;102508.34;4958350;28;20023;-80
2023/01/23 10:54:10;;;;;;;2.72;2.42;;;;;;;5.71;87.74;102502.34;4975224;28;20106;-91
2023/01/23 10:56:38;;;;;;;3.30;2.22;;;;;;;5.76;87.87;102507.47;4935435;28;20055;-85
2023/01/23 10:59:04;;;;;;;4.53;2.85;;;;;;;5.48;88.19;102468.91;4936769;29;20131;-86
2023/01/23 11:01:31;;;;;;;4.07;2.42;;;;;;;5.82;87.86;102504.94;4953233;28;20495;-88
2023/01/23 11:04:18;;;;;;;6.57;3.00;;;;;;;5.71;87.73;102480.94;4955980;28;20062;-86
2023/01/23 11:06:43;;;;;;;3.10;2.85;;;;;;;5.68;87.80;102478.34;4966058;28;20054;-86
2023/01/23 11:09:18;;;;;;;3.90;2.78;;;;;;;5.73;87.50;102463.81;4954139;28;20042;-84
2023/01/23 11:11:43;;;;;;;3.13;2.10;;;;;;;5.89;87.56;102491.19;4921102;29;20032;-86
2023/01/23 11:14:15;;;;;;;5.50;3.17;;;;;;;5.81;87.88;102498.06;4953072;28;20486;-83
2023/01/23 11:16:41;;;;;;;6.57;3.13;;;;;;;5.80;87.26;102501.50;4949858;28;20034;-91
2023/01/23 11:19:07;;;;;;;5.38;2.40;;;;;;;5.82;87.26;102506.63;4971089;28;20568;-84
2023/01/23 11:21:51;;;;;;;4.82;4.40;;;;;;;5.96;87.33;102508.38;4955035;28;20042;-80
2023/01/23 11:24:24;;;;;;;6.43;3.45;;;;;;;5.76;87.47;102486.94;4966250;28;20041;-89
2023/01/23 11:27:16;;;;;;;8.63;7.45;;;;;;;5.83;87.54;102501.50;4956792;28;20058;-79
2023/01/23 11:29:47;;;;;;;5.07;3.30;;;;;;;5.76;87.15;102492.06;4952116;28;20054;-80
2023/01/23 11:32:13;;;;;;;1.50;1.08;;;;;;;5.65;87.35;102504.03;4972103;28;20520;-84
2023/01/23 11:35:09;;;;;;;10.15;3.30;;;;;;;5.58;87.84;102490.31;4929351;29;20039;-84
2023/01/23 11:37:36;;;;;;;5.03;2.72;;;;;;;5.52;87.92;102487.78;4933294;29;20060;-87
2023/01/23 11:40:01;;;;;;;2.33;2.13;;;;;;;5.62;88.34;102497.19;4950094;29;20034;-82
2023/01/23 11:42:27;;;;;;;3.70;2.65;;;;;;;5.63;88.47;102493.78;4953943;28;20062;-86